createdAt,value
2022-12-25T00:00:32.130Z,0
2022-12-25T00:01:32.116Z,0
2022-12-25T00:02:32.230Z,0
2022-12-25T00:03:32.254Z,0
2022-12-25T00:04:32.138Z,0
2022-12-25T00:05:32.133Z,0
2022-12-25T00:06:32.134Z,0
2022-12-25T00:07:32.127Z,0
2022-12-25T00:08:32.130Z,0
2022-12-25T00:09:32.116Z,0
2022-12-25T00:10:32.209Z,0
2022-12-25T00:11:32.129Z,0
2022-12-25T00:12:32.100Z,0
2022-12-25T00:13:32.124Z,0
2022-12-25T00:14:32.144Z,0
2022-12-25T00:15:32.111Z,0
2022-12-25T00:16:32.210Z,0
2022-12-25T00:17:32.088Z,0
2022-12-25T00:18:32.105Z,0
2022-12-25T00:19:32.135Z,0
2022-12-25T00:20:32.106Z,0
2022-12-25T00:21:32.110Z,0
2022-12-25T00:22:32.114Z,0
2022-12-25T00:23:32.117Z,0
2022-12-25T00:24:32.134Z,0
2022-12-25T00:25:32.105Z,0
2022-12-25T00:26:32.130Z,0
2022-12-25T00:27:32.117Z,0
2022-12-25T00:28:32.103Z,0
2022-12-25T00:29:32.109Z,0
2022-12-25T00:30:32.123Z,0
2022-12-25T00:31:32.194Z,0
2022-12-25T00:32:32.141Z,0
2022-12-25T00:33:32.129Z,0
2022-12-25T00:34:32.248Z,0
2022-12-25T00:35:32.098Z,0
2022-12-25T00:36:37.780Z,0
2022-12-25T00:37:32.108Z,0
2022-12-25T00:38:32.247Z,0
2022-12-25T00:39:32.103Z,0
2022-12-25T00:40:32.093Z,0
2022-12-25T00:41:32.202Z,0
2022-12-25T00:42:32.124Z,0
2022-12-25T00:43:32.107Z,0
2022-12-25T00:44:32.182Z,0
2022-12-25T00:45:32.310Z,0
2022-12-25T00:46:32.250Z,0
2022-12-25T00:47:32.117Z,0
2022-12-25T00:48:32.142Z,0
2022-12-25T00:49:32.095Z,0
2022-12-25T00:50:32.138Z,0
2022-12-25T00:51:32.107Z,0
2022-12-25T00:52:32.121Z,0
2022-12-25T00:53:32.093Z,0
2022-12-25T00:54:32.110Z,0
2022-12-25T00:55:32.991Z,0
2022-12-25T00:56:37.519Z,0
2022-12-25T00:57:41.602Z,0
2022-12-25T00:58:45.551Z,0
2022-12-25T00:59:49.521Z,0
2022-12-25T01:00:53.575Z,0
2022-12-25T01:01:57.596Z,0
2022-12-25T01:03:01.785Z,0
2022-12-25T01:04:05.531Z,0
2022-12-25T01:05:09.540Z,0
2022-12-25T01:06:13.522Z,0
2022-12-25T01:07:17.602Z,0
2022-12-25T01:08:21.510Z,0
2022-12-25T01:09:25.546Z,0
2022-12-25T01:10:29.519Z,0
2022-12-25T01:11:32.146Z,0
2022-12-25T01:12:32.148Z,0
2022-12-25T01:13:32.129Z,0
2022-12-25T01:14:32.106Z,0
2022-12-25T01:15:32.251Z,0
2022-12-25T01:16:32.177Z,0
2022-12-25T01:17:32.116Z,0
2022-12-25T01:18:32.137Z,0
2022-12-25T01:19:32.122Z,0
2022-12-25T01:20:32.126Z,0
2022-12-25T01:21:32.095Z,0
2022-12-25T01:22:32.101Z,0
2022-12-25T01:23:32.108Z,0
2022-12-25T01:24:32.141Z,0
2022-12-25T01:25:32.107Z,0
2022-12-25T01:26:32.099Z,0
2022-12-25T01:27:32.089Z,0
2022-12-25T01:28:32.120Z,0
2022-12-25T01:29:32.090Z,0
2022-12-25T01:30:32.120Z,0
2022-12-25T01:31:32.110Z,0
2022-12-25T01:32:32.114Z,0
2022-12-25T01:33:32.108Z,0
2022-12-25T01:34:32.119Z,0
2022-12-25T01:35:32.104Z,0
2022-12-25T01:36:32.181Z,0
2022-12-25T01:37:32.098Z,0
2022-12-25T01:38:32.095Z,0
2022-12-25T01:39:32.085Z,0
2022-12-25T01:40:32.250Z,0
2022-12-25T01:41:32.270Z,0
2022-12-25T01:42:32.245Z,0
2022-12-25T01:43:32.263Z,0
2022-12-25T01:44:32.279Z,0
2022-12-25T01:45:32.353Z,0
2022-12-25T01:46:32.312Z,0
2022-12-25T01:47:32.232Z,0
2022-12-25T01:48:32.287Z,0
2022-12-25T01:49:32.227Z,0
2022-12-25T01:50:32.180Z,0
2022-12-25T01:51:32.231Z,0
2022-12-25T01:52:32.120Z,0
2022-12-25T01:53:32.115Z,0
2022-12-25T01:54:32.130Z,0
2022-12-25T01:55:32.100Z,0
2022-12-25T01:56:32.112Z,0
2022-12-25T01:57:32.102Z,0
2022-12-25T01:58:32.124Z,0
2022-12-25T01:59:32.098Z,0
2022-12-25T02:00:32.125Z,0
2022-12-25T02:01:32.269Z,0
2022-12-25T02:02:32.264Z,0
2022-12-25T02:03:32.244Z,0
2022-12-25T02:04:32.135Z,0
2022-12-25T02:05:32.115Z,0
2022-12-25T02:06:32.098Z,0
2022-12-25T02:07:32.105Z,0
2022-12-25T02:08:32.109Z,0
2022-12-25T02:09:32.071Z,0
2022-12-25T02:10:32.085Z,0
2022-12-25T02:11:32.109Z,0
2022-12-25T02:12:32.095Z,0
2022-12-25T02:13:32.063Z,0
2022-12-25T02:14:32.093Z,0
2022-12-25T02:15:32.102Z,0
2022-12-25T02:16:32.177Z,0
2022-12-25T02:17:32.091Z,0
2022-12-25T02:18:32.053Z,0
2022-12-25T02:19:32.095Z,0
2022-12-25T02:20:32.116Z,0
2022-12-25T02:21:32.140Z,0
2022-12-25T02:22:32.111Z,0
2022-12-25T02:23:32.095Z,0
2022-12-25T02:24:32.099Z,0
2022-12-25T02:25:32.120Z,0
2022-12-25T02:26:32.075Z,0
2022-12-25T02:27:32.103Z,0
2022-12-25T02:28:32.065Z,0
2022-12-25T02:29:32.100Z,0
2022-12-25T02:30:32.127Z,0
2022-12-25T02:31:32.094Z,0
2022-12-25T02:32:32.089Z,0
2022-12-25T02:33:32.151Z,0
2022-12-25T02:34:32.106Z,0
2022-12-25T02:35:32.123Z,0
2022-12-25T02:36:32.084Z,0
2022-12-25T02:37:32.116Z,0
2022-12-25T02:38:32.093Z,0
2022-12-25T02:39:32.110Z,0
2022-12-25T02:40:32.106Z,0
2022-12-25T02:41:32.115Z,0
2022-12-25T02:42:32.111Z,0
2022-12-25T02:43:32.087Z,0
2022-12-25T02:44:32.086Z,0
2022-12-25T02:45:32.166Z,0
2022-12-25T02:46:32.152Z,0
2022-12-25T02:47:32.166Z,0
2022-12-25T02:48:32.086Z,0
2022-12-25T02:49:32.109Z,0
2022-12-25T02:50:32.105Z,0
2022-12-25T02:51:32.113Z,0
2022-12-25T02:52:32.088Z,0
2022-12-25T02:53:32.143Z,0
2022-12-25T02:54:32.211Z,0
2022-12-25T02:55:32.099Z,0
2022-12-25T02:56:32.097Z,0
2022-12-25T02:57:32.118Z,0
2022-12-25T02:58:32.080Z,0
2022-12-25T02:59:32.099Z,0
2022-12-25T03:00:32.085Z,0
2022-12-25T03:01:32.248Z,0
2022-12-25T03:02:32.142Z,0
2022-12-25T03:03:32.228Z,0
2022-12-25T03:04:32.076Z,0
2022-12-25T03:05:32.093Z,0
2022-12-25T03:06:32.098Z,0
2022-12-25T03:07:32.093Z,0
2022-12-25T03:08:32.109Z,0
2022-12-25T03:09:32.121Z,0
2022-12-25T03:10:32.257Z,0
2022-12-25T03:11:32.233Z,0
2022-12-25T03:12:32.267Z,0
2022-12-25T03:13:32.117Z,0
2022-12-25T03:14:32.114Z,0
2022-12-25T03:15:32.098Z,0
2022-12-25T03:16:32.225Z,0
2022-12-25T03:17:32.243Z,0
2022-12-25T03:18:32.125Z,0
2022-12-25T03:19:32.217Z,0
2022-12-25T03:20:32.109Z,0
2022-12-25T03:21:32.241Z,0
2022-12-25T03:22:32.251Z,0
2022-12-25T03:23:32.271Z,0
2022-12-25T03:24:32.093Z,0
2022-12-25T03:25:32.166Z,0
2022-12-25T03:26:32.227Z,0
2022-12-25T03:27:32.102Z,0
2022-12-25T03:28:32.222Z,0
2022-12-25T03:29:32.244Z,0
2022-12-25T03:30:32.266Z,0
2022-12-25T03:31:32.178Z,0
2022-12-25T03:32:32.162Z,0
2022-12-25T03:33:45.029Z,0
2022-12-25T03:34:32.121Z,0
2022-12-25T03:35:32.076Z,0
2022-12-25T03:36:32.231Z,0
2022-12-25T03:37:32.211Z,0
2022-12-25T03:38:32.140Z,0
2022-12-25T03:39:32.322Z,0
2022-12-25T03:40:32.211Z,0
2022-12-25T03:41:32.209Z,0
2022-12-25T03:42:32.265Z,0
2022-12-25T03:43:32.271Z,0
2022-12-25T03:44:32.269Z,0
2022-12-25T03:45:32.102Z,0
2022-12-25T03:46:32.182Z,0
2022-12-25T03:47:32.097Z,0
2022-12-25T03:48:32.127Z,0
2022-12-25T03:49:32.089Z,0
2022-12-25T03:50:32.149Z,0
2022-12-25T03:51:32.159Z,0
2022-12-25T03:52:32.116Z,0
2022-12-25T03:53:32.082Z,0
2022-12-25T03:54:32.100Z,0
2022-12-25T03:55:32.221Z,0
2022-12-25T03:56:32.136Z,0
2022-12-25T03:57:32.099Z,0
2022-12-25T03:58:32.121Z,0
2022-12-25T03:59:32.103Z,0
2022-12-25T04:00:32.126Z,0
2022-12-25T04:01:32.177Z,0
2022-12-25T04:02:32.259Z,0
2022-12-25T04:03:32.133Z,0
2022-12-25T04:04:32.251Z,0
2022-12-25T04:05:32.089Z,0
2022-12-25T04:06:32.135Z,0
2022-12-25T04:07:32.113Z,0
2022-12-25T04:08:32.221Z,0
2022-12-25T04:09:32.175Z,0
2022-12-25T04:10:32.145Z,0
2022-12-25T04:11:32.197Z,0
2022-12-25T04:12:32.139Z,0
2022-12-25T04:13:32.104Z,0
2022-12-25T04:14:32.149Z,0
2022-12-25T04:15:32.119Z,0
2022-12-25T04:16:32.218Z,0
2022-12-25T04:17:32.107Z,0
2022-12-25T04:18:32.235Z,0
2022-12-25T04:19:32.101Z,0
2022-12-25T04:20:32.163Z,0
2022-12-25T04:21:32.097Z,0
2022-12-25T04:22:32.078Z,0
2022-12-25T04:23:32.080Z,0
2022-12-25T04:24:32.110Z,0
2022-12-25T04:25:32.082Z,0
2022-12-25T04:26:32.110Z,0
2022-12-25T04:27:32.066Z,0
2022-12-25T04:28:32.126Z,0
2022-12-25T04:29:32.099Z,0
2022-12-25T04:30:32.068Z,0
2022-12-25T04:31:32.190Z,0
2022-12-25T04:32:32.110Z,0
2022-12-25T04:33:32.091Z,0
2022-12-25T04:34:32.078Z,0
2022-12-25T04:35:32.085Z,0
2022-12-25T04:36:32.112Z,0
2022-12-25T04:37:32.088Z,0
2022-12-25T04:38:32.073Z,0
2022-12-25T04:39:32.091Z,0
2022-12-25T04:40:32.121Z,0
2022-12-25T04:41:32.089Z,0
2022-12-25T04:42:32.164Z,0
2022-12-25T04:43:32.103Z,0
2022-12-25T04:44:32.105Z,0
2022-12-25T04:45:32.081Z,0
2022-12-25T04:46:32.155Z,0
2022-12-25T04:47:32.071Z,0
2022-12-25T04:48:32.110Z,0
2022-12-25T04:49:32.100Z,0
2022-12-25T04:50:32.105Z,0
2022-12-25T04:51:32.071Z,0
2022-12-25T04:52:32.105Z,0
2022-12-25T04:53:32.089Z,0
2022-12-25T04:54:32.105Z,0
2022-12-25T04:55:32.094Z,0
2022-12-25T04:56:32.086Z,0
2022-12-25T04:57:32.077Z,0
2022-12-25T04:58:32.081Z,0
2022-12-25T04:59:32.077Z,0
2022-12-25T05:00:32.113Z,0
2022-12-25T05:01:32.202Z,0
2022-12-25T05:02:32.364Z,0
2022-12-25T05:03:32.259Z,0
2022-12-25T05:04:32.119Z,0
2022-12-25T05:05:33.097Z,0
2022-12-25T05:06:32.072Z,0
2022-12-25T05:07:32.098Z,0
2022-12-25T05:08:32.098Z,0
2022-12-25T05:09:32.094Z,0
2022-12-25T05:10:32.080Z,0
2022-12-25T05:11:32.097Z,0
2022-12-25T05:12:32.120Z,0
2022-12-25T05:13:32.202Z,0
2022-12-25T05:14:32.113Z,0
2022-12-25T05:15:32.103Z,0
2022-12-25T05:16:32.202Z,0
2022-12-25T05:17:32.091Z,0
2022-12-25T05:18:32.075Z,0
2022-12-25T05:19:32.179Z,0
2022-12-25T05:20:36.342Z,0
2022-12-25T05:21:32.102Z,0
2022-12-25T05:22:32.070Z,0
2022-12-25T05:23:32.071Z,0
2022-12-25T05:24:32.188Z,0
2022-12-25T05:25:32.098Z,0
2022-12-25T05:26:32.085Z,0
2022-12-25T05:27:32.090Z,0
2022-12-25T05:28:32.091Z,0
2022-12-25T05:29:32.125Z,0
2022-12-25T05:30:32.093Z,0
2022-12-25T05:31:32.245Z,0
2022-12-25T05:32:32.070Z,0
2022-12-25T05:33:32.104Z,0
2022-12-25T05:34:32.046Z,0
2022-12-25T05:35:32.081Z,0
2022-12-25T05:36:32.075Z,0
2022-12-25T05:37:32.123Z,0
2022-12-25T05:38:32.085Z,0
2022-12-25T05:39:32.084Z,0
2022-12-25T05:40:32.115Z,0
2022-12-25T05:41:34.524Z,0
2022-12-25T05:42:32.077Z,0
2022-12-25T05:43:32.122Z,0
2022-12-25T05:44:32.089Z,0
2022-12-25T05:45:32.120Z,0
2022-12-25T05:46:32.174Z,0
2022-12-25T05:47:32.074Z,0
2022-12-25T05:48:32.056Z,0
2022-12-25T05:49:32.106Z,0
2022-12-25T05:50:32.065Z,0
2022-12-25T05:51:32.092Z,0
2022-12-25T05:52:32.086Z,0
2022-12-25T05:53:32.124Z,0
2022-12-25T05:54:32.101Z,0
2022-12-25T05:55:32.076Z,0
2022-12-25T05:56:32.077Z,0
2022-12-25T05:57:32.137Z,0
2022-12-25T05:58:32.093Z,0
2022-12-25T05:59:32.084Z,0
2022-12-25T06:00:32.117Z,0
2022-12-25T06:01:32.257Z,0
2022-12-25T06:02:32.329Z,0
2022-12-25T06:03:32.130Z,0
2022-12-25T06:04:32.076Z,0
2022-12-25T06:05:32.119Z,0
2022-12-25T06:06:32.101Z,0
2022-12-25T06:07:32.071Z,0
2022-12-25T06:08:32.088Z,0
2022-12-25T06:09:32.131Z,0
2022-12-25T06:10:32.099Z,0
2022-12-25T06:11:32.082Z,0
2022-12-25T06:12:32.082Z,0
2022-12-25T06:13:32.088Z,0
2022-12-25T06:14:32.095Z,0
2022-12-25T06:15:32.113Z,0
2022-12-25T06:16:37.953Z,0
2022-12-25T06:17:32.090Z,0
2022-12-25T06:18:32.033Z,0
2022-12-25T06:19:32.062Z,0
2022-12-25T06:20:32.079Z,0
2022-12-25T06:21:32.068Z,0
2022-12-25T06:22:32.086Z,0
2022-12-25T06:23:32.116Z,0
2022-12-25T06:24:32.114Z,0
2022-12-25T06:25:32.060Z,0
2022-12-25T06:26:32.124Z,0
2022-12-25T06:27:32.088Z,0
2022-12-25T06:28:32.120Z,0
2022-12-25T06:29:32.070Z,0
2022-12-25T06:30:32.098Z,0
2022-12-25T06:31:32.122Z,0
2022-12-25T06:32:32.089Z,0
2022-12-25T06:33:32.074Z,0
2022-12-25T06:34:32.069Z,0
2022-12-25T06:35:32.081Z,0
2022-12-25T06:36:32.101Z,0
2022-12-25T06:37:32.066Z,0
2022-12-25T06:38:32.076Z,0
2022-12-25T06:39:32.063Z,0
2022-12-25T06:40:32.094Z,0
2022-12-25T06:41:32.054Z,0
2022-12-25T06:42:32.092Z,0
2022-12-25T06:43:32.079Z,0
2022-12-25T06:44:32.094Z,0
2022-12-25T06:45:32.090Z,0
2022-12-25T06:46:32.081Z,0
2022-12-25T06:47:32.067Z,0
2022-12-25T06:48:32.126Z,0
2022-12-25T06:49:32.041Z,0
2022-12-25T06:50:32.074Z,0
2022-12-25T06:51:32.096Z,0
2022-12-25T06:52:32.085Z,0
2022-12-25T06:53:38.806Z,0
2022-12-25T06:54:32.258Z,0
2022-12-25T06:55:32.086Z,0
2022-12-25T06:56:32.090Z,0
2022-12-25T06:57:32.048Z,0
2022-12-25T06:58:32.096Z,0
2022-12-25T06:59:32.083Z,0
2022-12-25T07:00:32.105Z,0
2022-12-25T07:01:32.176Z,0
2022-12-25T07:02:32.206Z,0
2022-12-25T07:03:32.072Z,0
2022-12-25T07:04:32.234Z,0
2022-12-25T07:05:32.058Z,0
2022-12-25T07:06:32.082Z,0
2022-12-25T07:07:32.046Z,0
2022-12-25T07:08:32.076Z,0
2022-12-25T07:09:32.066Z,0
2022-12-25T07:10:32.057Z,0
2022-12-25T07:11:32.052Z,0
2022-12-25T07:12:32.099Z,0
2022-12-25T07:13:32.060Z,0
2022-12-25T07:14:32.071Z,0
2022-12-25T07:15:32.072Z,0
2022-12-25T07:16:32.323Z,0
2022-12-25T07:17:32.044Z,0
2022-12-25T07:18:32.148Z,0
2022-12-25T07:19:32.092Z,0
2022-12-25T07:20:32.072Z,0
2022-12-25T07:21:32.093Z,0
2022-12-25T07:22:32.114Z,0
2022-12-25T07:23:32.062Z,0
2022-12-25T07:24:32.041Z,0
2022-12-25T07:25:37.113Z,0
2022-12-25T07:26:32.078Z,0
2022-12-25T07:27:32.055Z,0
2022-12-25T07:28:32.132Z,0
2022-12-25T07:29:32.176Z,0
2022-12-25T07:30:32.076Z,0
2022-12-25T07:31:32.158Z,0
2022-12-25T07:32:32.117Z,0
2022-12-25T07:33:32.107Z,0
2022-12-25T07:34:32.069Z,0
2022-12-25T07:35:32.074Z,0
2022-12-25T07:36:32.044Z,0
2022-12-25T07:37:32.099Z,0
2022-12-25T07:38:32.076Z,0
2022-12-25T07:39:32.047Z,0
2022-12-25T07:40:32.056Z,0
2022-12-25T07:41:32.164Z,0
2022-12-25T07:42:32.087Z,0
2022-12-25T07:43:32.044Z,0
2022-12-25T07:44:32.075Z,0
2022-12-25T07:45:32.171Z,0
2022-12-25T07:46:32.070Z,0
2022-12-25T07:47:32.147Z,0
2022-12-25T07:48:32.076Z,0.36
2022-12-25T07:49:32.111Z,0
2022-12-25T07:50:32.040Z,0
2022-12-25T07:51:32.071Z,0.36
2022-12-25T07:52:35.313Z,0
2022-12-25T07:53:32.083Z,0
2022-12-25T07:54:32.044Z,0
2022-12-25T07:55:32.075Z,0.36
2022-12-25T07:56:32.065Z,0.85
2022-12-25T07:57:32.088Z,1.22
2022-12-25T07:58:32.080Z,0.85
2022-12-25T07:59:32.068Z,0.85
2022-12-25T08:00:32.067Z,0.36
2022-12-25T08:01:32.333Z,0.85
2022-12-25T08:02:32.432Z,0.85
2022-12-25T08:03:33.367Z,1.71
2022-12-25T08:04:32.059Z,0.36
2022-12-25T08:05:32.096Z,0.85
2022-12-25T08:06:32.134Z,0.85
2022-12-25T08:07:32.088Z,1.71
2022-12-25T08:08:32.068Z,1.71
2022-12-25T08:09:32.110Z,1.71
2022-12-25T08:10:32.079Z,2.57
2022-12-25T08:11:32.077Z,2.08
2022-12-25T08:12:32.077Z,2.08
2022-12-25T08:13:32.097Z,2.57
2022-12-25T08:14:32.047Z,2.94
2022-12-25T08:15:32.064Z,2.94
2022-12-25T08:16:32.071Z,2.94
2022-12-25T08:17:32.103Z,2.57
2022-12-25T08:18:32.082Z,3.79
2022-12-25T08:19:32.057Z,2.57
2022-12-25T08:20:32.205Z,3.43
2022-12-25T08:21:32.067Z,2.94
2022-12-25T08:22:32.119Z,3.79
2022-12-25T08:23:32.071Z,3.79
2022-12-25T08:24:32.076Z,4.77
2022-12-25T08:25:32.084Z,4.28
2022-12-25T08:26:32.073Z,4.77
2022-12-25T08:27:32.061Z,5.63
2022-12-25T08:28:32.061Z,5.14
2022-12-25T08:29:32.106Z,5.14
2022-12-25T08:30:32.152Z,5.14
2022-12-25T08:31:32.106Z,5.63
2022-12-25T08:32:32.072Z,7.7
2022-12-25T08:33:32.082Z,6.85
2022-12-25T08:34:32.100Z,8.56
2022-12-25T08:35:32.058Z,12.11
2022-12-25T08:36:32.042Z,8.56
2022-12-25T08:37:32.043Z,8.19
2022-12-25T08:38:32.084Z,8.56
2022-12-25T08:39:32.059Z,8.56
2022-12-25T08:40:32.067Z,9.91
2022-12-25T08:41:32.084Z,9.05
2022-12-25T08:42:32.097Z,9.54
2022-12-25T08:43:32.069Z,10.77
2022-12-25T08:44:32.065Z,10.77
2022-12-25T08:45:35.256Z,11.62
2022-12-25T08:46:32.216Z,11.25
2022-12-25T08:47:32.051Z,11.62
2022-12-25T08:48:32.097Z,12.11
2022-12-25T08:49:32.050Z,12.11
2022-12-25T08:50:32.083Z,13.33
2022-12-25T08:51:32.068Z,12.97
2022-12-25T08:52:32.076Z,12.11
2022-12-25T08:53:32.055Z,12.48
2022-12-25T08:54:32.103Z,13.82
2022-12-25T08:55:32.043Z,13.33
2022-12-25T08:56:32.053Z,12.97
2022-12-25T08:57:32.036Z,11.62
2022-12-25T08:58:32.058Z,12.11
2022-12-25T08:59:32.058Z,12.97
2022-12-25T09:00:32.058Z,12.48
2022-12-25T09:01:32.156Z,13.82
2022-12-25T09:02:32.520Z,12.97
2022-12-25T09:03:32.217Z,13.82
2022-12-25T09:04:32.093Z,13.33
2022-12-25T09:05:32.067Z,13.33
2022-12-25T09:06:32.105Z,13.33
2022-12-25T09:07:32.065Z,15.17
2022-12-25T09:08:32.129Z,15.53
2022-12-25T09:09:32.150Z,15.17
2022-12-25T09:10:32.080Z,15.53
2022-12-25T09:11:32.066Z,14.68
2022-12-25T09:12:32.072Z,16.02
2022-12-25T09:13:32.068Z,14.68
2022-12-25T09:14:32.056Z,14.31
2022-12-25T09:15:32.110Z,15.53
2022-12-25T09:16:32.137Z,15.53
2022-12-25T09:17:32.052Z,14.31
2022-12-25T09:18:32.092Z,13.82
2022-12-25T09:19:32.092Z,14.68
2022-12-25T09:20:32.100Z,16.02
2022-12-25T09:21:32.058Z,17.25
2022-12-25T09:22:32.075Z,17.25
2022-12-25T09:23:32.075Z,16.88
2022-12-25T09:24:32.066Z,16.02
2022-12-25T09:25:32.028Z,18.11
2022-12-25T09:26:32.063Z,17.73
2022-12-25T09:27:32.070Z,18.11
2022-12-25T09:28:32.103Z,19.08
2022-12-25T09:29:32.061Z,19.94
2022-12-25T09:30:32.159Z,19.45
2022-12-25T09:31:32.142Z,19.94
2022-12-25T09:32:32.076Z,19.08
2022-12-25T09:33:32.046Z,19.08
2022-12-25T09:34:32.048Z,17.73
2022-12-25T09:35:32.081Z,17.73
2022-12-25T09:36:32.052Z,17.25
2022-12-25T09:37:32.066Z,18.11
2022-12-25T09:38:32.037Z,19.94
2022-12-25T09:39:32.116Z,22.02
2022-12-25T09:40:32.080Z,25.07
2022-12-25T09:41:32.070Z,26.79
2022-12-25T09:42:32.096Z,27.65
2022-12-25T09:43:32.112Z,28.14
2022-12-25T09:44:32.064Z,25.94
2022-12-25T09:45:32.061Z,21.65
2022-12-25T09:46:36.645Z,22.51
2022-12-25T09:47:32.076Z,23.36
2022-12-25T09:48:32.049Z,23.85
2022-12-25T09:49:32.053Z,23.36
2022-12-25T09:50:32.067Z,25.07
2022-12-25T09:51:32.107Z,25.56
2022-12-25T09:52:32.064Z,25.94
2022-12-25T09:53:32.080Z,26.79
2022-12-25T09:54:32.044Z,27.28
2022-12-25T09:55:32.071Z,28.14
2022-12-25T09:56:32.070Z,30.34
2022-12-25T09:57:32.086Z,28.14
2022-12-25T09:58:32.084Z,26.79
2022-12-25T09:59:32.097Z,25.94
2022-12-25T10:00:32.081Z,26.79
2022-12-25T10:01:32.198Z,28.14
2022-12-25T10:02:32.186Z,27.65
2022-12-25T10:03:32.110Z,27.65
2022-12-25T10:04:37.498Z,28.14
2022-12-25T10:05:32.074Z,27.28
2022-12-25T10:06:32.034Z,28.14
2022-12-25T10:07:32.096Z,29.85
2022-12-25T10:08:32.150Z,31.56
2022-12-25T10:09:32.036Z,35.97
2022-12-25T10:10:32.043Z,37.68
2022-12-25T10:11:32.096Z,36.82
2022-12-25T10:12:32.086Z,35.11
2022-12-25T10:13:32.038Z,34.25
2022-12-25T10:14:32.080Z,33.76
2022-12-25T10:15:32.229Z,34.62
2022-12-25T10:16:32.108Z,35.11
2022-12-25T10:17:32.123Z,35.97
2022-12-25T10:18:32.046Z,33.76
2022-12-25T10:19:32.093Z,32.05
2022-12-25T10:20:32.073Z,33.76
2022-12-25T10:21:32.053Z,32.9
2022-12-25T10:22:32.064Z,30.34
2022-12-25T10:23:32.083Z,29.48
2022-12-25T10:24:32.087Z,28.63
2022-12-25T10:25:32.087Z,27.65
2022-12-25T10:26:32.083Z,27.28
2022-12-25T10:27:32.074Z,26.42
2022-12-25T10:28:32.058Z,26.42
2022-12-25T10:29:32.043Z,25.94
2022-12-25T10:30:32.043Z,25.94
2022-12-25T10:31:32.177Z,25.56
2022-12-25T10:32:32.066Z,26.42
2022-12-25T10:33:32.039Z,25.94
2022-12-25T10:34:32.033Z,26.79
2022-12-25T10:35:32.156Z,27.28
2022-12-25T10:36:32.056Z,28.63
2022-12-25T10:37:32.060Z,28.14
2022-12-25T10:38:32.045Z,27.28
2022-12-25T10:39:32.083Z,26.42
2022-12-25T10:40:32.062Z,27.28
2022-12-25T10:41:32.089Z,28.14
2022-12-25T10:42:32.050Z,28.99
2022-12-25T10:43:32.068Z,28.14
2022-12-25T10:44:32.042Z,28.63
2022-12-25T10:45:32.054Z,29.48
2022-12-25T10:46:32.077Z,29.48
2022-12-25T10:47:32.199Z,28.99
2022-12-25T10:48:32.049Z,28.99
2022-12-25T10:49:32.030Z,28.14
2022-12-25T10:50:32.031Z,27.65
2022-12-25T10:51:32.089Z,28.14
2022-12-25T10:52:32.041Z,28.63
2022-12-25T10:53:32.070Z,28.14
2022-12-25T10:54:32.028Z,28.14
2022-12-25T10:55:32.069Z,28.99
2022-12-25T10:56:32.142Z,28.63
2022-12-25T10:57:32.170Z,28.99
2022-12-25T10:58:32.057Z,28.63
2022-12-25T10:59:32.066Z,28.63
2022-12-25T11:00:32.086Z,28.14
2022-12-25T11:01:32.103Z,28.63
2022-12-25T11:02:32.249Z,27.65
2022-12-25T11:03:32.168Z,28.14
2022-12-25T11:04:32.079Z,28.14
2022-12-25T11:05:32.065Z,27.28
2022-12-25T11:06:32.048Z,27.28
2022-12-25T11:07:32.066Z,28.14
2022-12-25T11:08:32.072Z,27.28
2022-12-25T11:09:32.296Z,28.14
2022-12-25T11:10:32.090Z,26.79
2022-12-25T11:11:32.090Z,27.28
2022-12-25T11:12:32.066Z,27.28
2022-12-25T11:13:32.064Z,27.65
2022-12-25T11:14:32.061Z,26.79
2022-12-25T11:15:32.080Z,26.79
2022-12-25T11:16:32.190Z,27.28
2022-12-25T11:17:32.025Z,25.56
2022-12-25T11:18:32.078Z,25.56
2022-12-25T11:19:32.034Z,26.42
2022-12-25T11:20:32.071Z,25.94
2022-12-25T11:21:32.045Z,25.94
2022-12-25T11:22:32.056Z,25.56
2022-12-25T11:23:32.079Z,25.94
2022-12-25T11:24:32.081Z,25.94
2022-12-25T11:25:32.098Z,25.56
2022-12-25T11:26:32.027Z,25.07
2022-12-25T11:27:32.072Z,25.07
2022-12-25T11:28:32.096Z,24.22
2022-12-25T11:29:32.042Z,24.22
2022-12-25T11:30:32.035Z,22.87
2022-12-25T11:31:32.083Z,23.36
2022-12-25T11:32:32.064Z,22.51
2022-12-25T11:33:32.032Z,22.51
2022-12-25T11:34:32.043Z,22.51
2022-12-25T11:35:32.025Z,21.65
2022-12-25T11:36:32.081Z,22.02
2022-12-25T11:37:32.058Z,22.02
2022-12-25T11:38:32.097Z,21.16
2022-12-25T11:39:32.058Z,19.45
2022-12-25T11:40:32.060Z,19.94
2022-12-25T11:41:32.025Z,19.08
2022-12-25T11:42:32.038Z,18.6
2022-12-25T11:43:32.047Z,18.6
2022-12-25T11:44:32.059Z,18.6
2022-12-25T11:45:32.062Z,19.08
2022-12-25T11:46:32.086Z,18.11
2022-12-25T11:47:32.055Z,18.11
2022-12-25T11:48:32.079Z,17.73
2022-12-25T11:49:32.031Z,18.11
2022-12-25T11:50:32.022Z,18.11
2022-12-25T11:51:32.025Z,17.25
2022-12-25T11:52:32.077Z,16.88
2022-12-25T11:53:32.028Z,17.25
2022-12-25T11:54:32.069Z,17.25
2022-12-25T11:55:32.049Z,17.25
2022-12-25T11:56:32.079Z,16.39
2022-12-25T11:57:32.035Z,16.88
2022-12-25T11:58:32.056Z,16.39
2022-12-25T11:59:32.055Z,16.88
2022-12-25T12:00:32.074Z,16.88
2022-12-25T12:01:32.168Z,16.02
2022-12-25T12:02:32.147Z,16.02
2022-12-25T12:03:32.208Z,16.39
2022-12-25T12:04:35.369Z,15.53
2022-12-25T12:05:32.011Z,16.02
2022-12-25T12:06:32.054Z,16.39
2022-12-25T12:07:32.054Z,16.02
2022-12-25T12:08:32.082Z,15.53
2022-12-25T12:09:32.017Z,14.68
2022-12-25T12:10:32.040Z,14.68
2022-12-25T12:11:32.058Z,14.31
2022-12-25T12:12:32.121Z,13.82
2022-12-25T12:13:32.023Z,14.31
2022-12-25T12:14:32.038Z,14.31
2022-12-25T12:15:32.042Z,13.33
2022-12-25T12:16:32.154Z,13.33
2022-12-25T12:17:32.034Z,12.48
2022-12-25T12:18:32.049Z,12.48
2022-12-25T12:19:32.020Z,12.11
2022-12-25T12:20:32.055Z,12.11
2022-12-25T12:21:32.073Z,12.11
2022-12-25T12:22:32.003Z,11.62
2022-12-25T12:23:32.040Z,11.25
2022-12-25T12:24:32.035Z,11.25
2022-12-25T12:25:32.115Z,11.25
2022-12-25T12:26:32.053Z,10.39
2022-12-25T12:27:32.023Z,10.77
2022-12-25T12:28:32.019Z,9.91
2022-12-25T12:29:32.076Z,9.54
2022-12-25T12:30:32.071Z,9.54
2022-12-25T12:31:32.092Z,9.54
2022-12-25T12:32:32.034Z,9.05
2022-12-25T12:33:32.051Z,9.05
2022-12-25T12:34:32.026Z,9.54
2022-12-25T12:35:32.084Z,9.54
2022-12-25T12:36:36.446Z,9.54
2022-12-25T12:37:32.060Z,8.56
2022-12-25T12:38:32.036Z,9.05
2022-12-25T12:39:32.033Z,8.56
2022-12-25T12:40:32.010Z,9.05
2022-12-25T12:41:32.035Z,8.19
2022-12-25T12:42:32.054Z,9.05
2022-12-25T12:43:32.075Z,8.56
2022-12-25T12:44:32.022Z,7.7
2022-12-25T12:45:32.184Z,7.7
2022-12-25T12:46:32.141Z,8.19
2022-12-25T12:47:32.053Z,7.7
2022-12-25T12:48:32.046Z,7.7
2022-12-25T12:49:32.079Z,7.34
2022-12-25T12:50:32.013Z,7.34
2022-12-25T12:51:32.056Z,7.34
2022-12-25T12:52:32.045Z,6.48
2022-12-25T12:53:32.074Z,5.63
2022-12-25T12:54:32.036Z,6.85
2022-12-25T12:55:32.034Z,7.34
2022-12-25T12:56:32.023Z,6.85
2022-12-25T12:57:32.125Z,6.85
2022-12-25T12:58:32.053Z,7.7
2022-12-25T12:59:32.031Z,6.85
2022-12-25T13:00:32.060Z,6.85
2022-12-25T13:01:32.206Z,6.48
2022-12-25T13:02:32.169Z,6.85
2022-12-25T13:03:32.221Z,5.63
2022-12-25T13:04:32.033Z,6.85
2022-12-25T13:05:34.786Z,5.14
2022-12-25T13:06:32.033Z,5.99
2022-12-25T13:07:32.230Z,6.85
2022-12-25T13:08:32.048Z,5.99
2022-12-25T13:09:32.066Z,5.99
2022-12-25T13:10:32.081Z,5.14
2022-12-25T13:11:32.043Z,5.99
2022-12-25T13:12:32.045Z,5.63
2022-12-25T13:13:32.066Z,5.63
2022-12-25T13:14:32.041Z,5.63
2022-12-25T13:15:32.101Z,5.14
2022-12-25T13:16:32.149Z,4.28
2022-12-25T13:17:32.111Z,3.79
2022-12-25T13:18:32.034Z,4.28
2022-12-25T13:19:32.029Z,4.77
2022-12-25T13:20:32.019Z,3.43
2022-12-25T13:21:32.044Z,2.94
2022-12-25T13:22:32.068Z,2.94
2022-12-25T13:23:32.054Z,2.94
2022-12-25T13:24:32.016Z,2.57
2022-12-25T13:25:32.054Z,2.57
2022-12-25T13:26:32.047Z,2.08
2022-12-25T13:27:32.046Z,2.57
2022-12-25T13:28:32.027Z,2.08
2022-12-25T13:29:32.062Z,2.57
2022-12-25T13:30:32.034Z,2.57
2022-12-25T13:31:32.083Z,2.08
2022-12-25T13:32:32.035Z,2.08
2022-12-25T13:33:32.118Z,1.22
2022-12-25T13:34:32.065Z,2.08
2022-12-25T13:35:32.033Z,0.85
2022-12-25T13:36:31.984Z,1.71
2022-12-25T13:37:32.063Z,1.22
2022-12-25T13:38:32.037Z,0.36
2022-12-25T13:39:32.035Z,0.85
2022-12-25T13:40:32.020Z,0.85
2022-12-25T13:41:32.059Z,1.22
2022-12-25T13:42:32.068Z,0.36
2022-12-25T13:43:32.033Z,1.22
2022-12-25T13:44:32.015Z,0.36
2022-12-25T13:45:32.076Z,0
2022-12-25T13:46:32.024Z,0.36
2022-12-25T13:47:32.101Z,0.36
2022-12-25T13:48:32.078Z,0
2022-12-25T13:49:32.043Z,0.36
2022-12-25T13:50:32.021Z,0.36
2022-12-25T13:51:32.050Z,0.36
2022-12-25T13:52:31.999Z,0
2022-12-25T13:53:32.063Z,0
2022-12-25T13:54:32.018Z,0
2022-12-25T13:55:32.058Z,0.36
2022-12-25T13:56:32.003Z,0
2022-12-25T13:57:32.100Z,0
2022-12-25T13:58:32.071Z,0
2022-12-25T13:59:32.007Z,0
2022-12-25T14:00:32.050Z,0